KMTP/MTP METAR and TAF weather

Enter ICAO airport designator
Station Type Date Time Source
KMTP METAR 2019/04/18 13:54 UTC NOAA

KMTP 181354Z AUTO 13007G15KT 09/04 A3022 RMK AO1 SLP232 T00940039


Station Type Date Time Source
KMTP Decoded METAR 2019/04/18 13:54 UTC NOAA

MONTAUK AIRPORT, NY, United States (KMTP) 41-04N 071-55W 2M
Apr 18, 2019 - 09:54 AM EDT / 2019.04.18 1354 UTC
Wind: from the SE (130 degrees) at 8 MPH (7 KT) gusting to 17 MPH (15 KT):0
Temperature: 48.9 F (9.4 C)
Dew Point: 39.0 F (3.9 C)
Relative Humidity: 68%
Pressure (altimeter): 30.22 in. Hg (1023 hPa)
ob: KMTP 181354Z AUTO 13007G15KT 09/04 A3022 RMK AO1 SLP232 T00940039
cycle: 14

Station Type Date Time Source
KMTP TAF UTC NOAA

Error!

Example: see airport list